CPA7340 OMDB-VHHH
Flight info
| Callsign | CPA7340 |
|---|---|
| Flight time | N/A |
| Altitude | 37000 |
| Route | IVUR1F IVURO M677 LALDO B505 NADSO B524 ALPOR M504 TELEM A791 CEA B465 CTG A599 POU R473 SIERA SIER7B |
| Aircraft | B744/H-VGDW/C |
Departure
| Time | 2026-04-26 11:42 |
|---|---|
| Airport | Dubai International Airport (OMDB) |
Arrival
| Time | N/A |
|---|---|
| Airport | Hong Kong International Airport (VHHH) |
| Time | Latitude | Longitude | Altitude | Speed | Heading |
|---|---|---|---|---|---|
| 2026-04-26 11:13 | 25.25634 | 55.37247 | 25 ft | 0 kts | 31° |
| 2026-04-26 11:24 | 25.25636 | 55.37249 | 25 ft | 0 kts | 31° |
| 2026-04-26 11:25 | 25.25639 | 55.37250 | 25 ft | 0 kts | 31° |
| 2026-04-26 11:25 | 25.25618 | 55.37236 | 26 ft | 1 kts | 31° |
| 2026-04-26 11:25 | 25.25607 | 55.37228 | 26 ft | 1 kts | 37° |
| 2026-04-26 11:25 | 25.25598 | 55.37219 | 27 ft | 2 kts | 57° |
| 2026-04-26 11:26 | 25.25593 | 55.37206 | 27 ft | 1 kts | 79° |
| 2026-04-26 11:26 | 25.25592 | 55.37192 | 28 ft | 1 kts | 90° |
| 2026-04-26 11:26 | 25.25591 | 55.37191 | 28 ft | 0 kts | 87° |
| 2026-04-26 11:27 | 25.25590 | 55.37175 | 28 ft | 4 kts | 87° |
| 2026-04-26 11:27 | 25.25590 | 55.37165 | 28 ft | 1 kts | 88° |
| 2026-04-26 11:27 | 25.25588 | 55.37183 | 28 ft | 0 kts | 103° |
| 2026-04-26 11:28 | 25.25586 | 55.37191 | 28 ft | 3 kts | 105° |
| 2026-04-26 11:28 | 25.25579 | 55.37209 | 28 ft | 0 kts | 112° |
| 2026-04-26 11:30 | 25.25574 | 55.37220 | 28 ft | 5 kts | 118° |
| 2026-04-26 11:30 | 25.25555 | 55.37249 | 28 ft | 7 kts | 134° |
| 2026-04-26 11:30 | 25.25525 | 55.37281 | 29 ft | 2 kts | 135° |
| 2026-04-26 11:30 | 25.25507 | 55.37304 | 29 ft | 6 kts | 126° |
| 2026-04-26 11:31 | 25.25473 | 55.37360 | 28 ft | 11 kts | 121° |
| 2026-04-26 11:31 | 25.25422 | 55.37455 | 27 ft | 17 kts | 122° |
| 2026-04-26 11:31 | 25.25363 | 55.37559 | 26 ft | 17 kts | 121° |
| 2026-04-26 11:31 | 25.25296 | 55.37680 | 26 ft | 14 kts | 121° |
| 2026-04-26 11:32 | 25.25242 | 55.37778 | 27 ft | 15 kts | 121° |
| 2026-04-26 11:32 | 25.25180 | 55.37891 | 27 ft | 13 kts | 121° |
| 2026-04-26 11:32 | 25.25126 | 55.37989 | 26 ft | 15 kts | 121° |
| 2026-04-26 11:32 | 25.25100 | 55.38034 | 26 ft | 1 kts | 121° |
| 2026-04-26 11:33 | 25.25095 | 55.38043 | 26 ft | 0 kts | 121° |
| 2026-04-26 11:33 | 25.25085 | 55.38062 | 26 ft | 6 kts | 121° |
| 2026-04-26 11:33 | 25.25060 | 55.38107 | 25 ft | 2 kts | 122° |
| 2026-04-26 11:34 | 25.25052 | 55.38119 | 25 ft | 4 kts | 124° |
| 2026-04-26 11:34 | 25.25022 | 55.38155 | 25 ft | 7 kts | 148° |
| 2026-04-26 11:34 | 25.24976 | 55.38155 | 26 ft | 5 kts | 201° |
| 2026-04-26 11:34 | 25.24933 | 55.38132 | 27 ft | 8 kts | 208° |
| 2026-04-26 11:35 | 25.24921 | 55.38124 | 28 ft | 0 kts | 208° |
| 2026-04-26 11:36 | 25.24892 | 55.38108 | 29 ft | 13 kts | 208° |
| 2026-04-26 11:36 | 25.24830 | 55.38035 | 31 ft | 16 kts | 253° |
| 2026-04-26 11:36 | 25.24841 | 55.37962 | 32 ft | 0 kts | 294° |
| 2026-04-26 11:37 | 25.24844 | 55.37957 | 32 ft | 0 kts | 299° |
| 2026-04-26 11:39 | 25.24846 | 55.37953 | 32 ft | 7 kts | 299° |
| 2026-04-26 11:39 | 25.25000 | 55.37679 | 35 ft | 70 kts | 302° |
| 2026-04-26 11:40 | 25.25340 | 55.37068 | 44 ft | 116 kts | 301° |
| 2026-04-26 11:40 | 25.25835 | 55.36169 | 16 ft | 157 kts | 302° |
| 2026-04-26 11:40 | 25.26439 | 55.35068 | 218 ft | 169 kts | 301° |
| 2026-04-26 11:40 | 25.27060 | 55.33933 | 371 ft | 185 kts | 300° |
| 2026-04-26 11:41 | 25.27800 | 55.32582 | 522 ft | 221 kts | 301° |
| 2026-04-26 11:42 | 25.38839 | 55.30139 | 5881 ft | 274 kts | 22° |
| 2026-04-26 11:43 | 25.40484 | 55.31211 | 6722 ft | 277 kts | 40° |
| 2026-04-26 11:43 | 25.41953 | 55.32753 | 6966 ft | 299 kts | 49° |
| 2026-04-26 11:43 | 25.43309 | 55.34515 | 6987 ft | 300 kts | 52° |
| 2026-04-26 11:43 | 25.44626 | 55.36301 | 6985 ft | 299 kts | 52° |
| 2026-04-26 11:44 | 25.45935 | 55.38087 | 6985 ft | 298 kts | 52° |
| 2026-04-26 11:44 | 25.47240 | 55.39863 | 7013 ft | 297 kts | 52° |
| 2026-04-26 11:44 | 25.48526 | 55.41642 | 7642 ft | 297 kts | 53° |
| 2026-04-26 11:44 | 25.49799 | 55.43454 | 8243 ft | 299 kts | 54° |
| 2026-04-26 11:45 | 25.51059 | 55.45287 | 8838 ft | 300 kts | 59° |
| 2026-04-26 11:45 | 25.51905 | 55.47371 | 9448 ft | 296 kts | 79° |
| 2026-04-26 11:45 | 25.52106 | 55.49612 | 10100 ft | 292 kts | 94° |
| 2026-04-26 11:45 | 25.51916 | 55.51859 | 11004 ft | 299 kts | 105° |
| 2026-04-26 11:46 | 25.51202 | 55.54018 | 11899 ft | 307 kts | 117° |
| 2026-04-26 11:46 | 25.50155 | 55.56094 | 12769 ft | 316 kts | 121° |
| 2026-04-26 11:46 | 25.48958 | 55.58256 | 12968 ft | 349 kts | 122° |
| 2026-04-26 11:46 | 25.47645 | 55.60565 | 12989 ft | 365 kts | 122° |
| 2026-04-26 11:47 | 25.46215 | 55.63068 | 13271 ft | 392 kts | 122° |
| 2026-04-26 11:47 | 25.44782 | 55.65582 | 14337 ft | 397 kts | 123° |
| 2026-04-26 11:47 | 25.43326 | 55.68148 | 15598 ft | 396 kts | 120° |
| 2026-04-26 11:47 | 25.42327 | 55.70952 | 16860 ft | 395 kts | 108° |
| 2026-04-26 11:48 | 25.41671 | 55.73851 | 18098 ft | 392 kts | 105° |
| 2026-04-26 11:48 | 25.41068 | 55.76741 | 19330 ft | 386 kts | 106° |
| 2026-04-26 11:48 | 25.40470 | 55.79572 | 20554 ft | 378 kts | 107° |
| 2026-04-26 11:48 | 25.39882 | 55.82334 | 21772 ft | 367 kts | 107° |
| 2026-04-26 11:49 | 25.39309 | 55.85021 | 22989 ft | 354 kts | 108° |
| 2026-04-26 11:49 | 25.38762 | 55.87589 | 24191 ft | 337 kts | 108° |
| 2026-04-26 11:49 | 25.38253 | 55.89990 | 25364 ft | 316 kts | 109° |
| 2026-04-26 11:49 | 25.37772 | 55.92263 | 26321 ft | 300 kts | 109° |
| 2026-04-26 11:50 | 25.37290 | 55.94503 | 26830 ft | 297 kts | 109° |
| 2026-04-26 11:50 | 25.36814 | 55.96708 | 27165 ft | 298 kts | 109° |
| 2026-04-26 11:50 | 25.36334 | 55.98941 | 27535 ft | 297 kts | 109° |
| 2026-04-26 11:50 | 25.35854 | 56.01173 | 27896 ft | 296 kts | 109° |
| 2026-04-26 11:51 | 25.35384 | 56.03359 | 28243 ft | 294 kts | 109° |
| 2026-04-26 11:51 | 25.34913 | 56.05551 | 28582 ft | 291 kts | 110° |
| 2026-04-26 11:51 | 25.34453 | 56.07693 | 28944 ft | 286 kts | 110° |
| 2026-04-26 11:51 | 25.33998 | 56.09818 | 29227 ft | 281 kts | 109° |
| 2026-04-26 11:52 | 25.33600 | 56.11929 | 29298 ft | 286 kts | 104° |
| 2026-04-26 11:52 | 25.33434 | 56.13414 | 29270 ft | 294 kts | 97° |
| 2026-04-26 11:52 | 25.33669 | 56.16467 | 29297 ft | 307 kts | 74° |
| 2026-04-26 11:52 | 25.34550 | 56.18615 | 29346 ft | 313 kts | 52° |
| 2026-04-26 11:53 | 25.36050 | 56.20355 | 29386 ft | 313 kts | 32° |
| 2026-04-26 11:53 | 25.37879 | 56.21839 | 28761 ft | 349 kts | 38° |
| 2026-04-26 11:53 | 25.39745 | 56.23687 | 28627 ft | 363 kts | 51° |
| 2026-04-26 11:54 | 25.41947 | 56.28734 | 28782 ft | 376 kts | 85° |
| 2026-04-26 11:54 | 25.42057 | 56.31645 | 28979 ft | 377 kts | 102° |
| 2026-04-26 11:54 | 25.41072 | 56.35616 | 29337 ft | 374 kts | 117° |
| 2026-04-26 11:54 | 25.37154 | 56.45420 | 30300 ft | 369 kts | 134° |
| 2026-04-26 11:55 | 25.34231 | 56.49697 | 30835 ft | 379 kts | 125° |
| 2026-04-26 11:55 | 25.22571 | 56.79043 | 31146 ft | 398 kts | 112° |
| 2026-04-26 11:55 | 25.20292 | 56.86127 | 30861 ft | 422 kts | 117° |
| 2026-04-26 11:55 | 25.19131 | 56.89144 | 30881 ft | 435 kts | 117° |
| 2026-04-26 11:56 | 25.17929 | 56.92282 | 31082 ft | 443 kts | 117° |
| 2026-04-26 11:56 | 25.01426 | 57.35300 | 37076 ft | 443 kts | 115° |
| 2026-04-26 11:56 | 25.00230 | 57.38440 | 36807 ft | 460 kts | 115° |
| 2026-04-26 11:57 | 24.97701 | 57.45055 | 36848 ft | 477 kts | 115° |
| 2026-04-26 11:57 | 24.95055 | 57.51926 | 36844 ft | 498 kts | 115° |
| 2026-04-26 11:58 | 24.92305 | 57.59045 | 36842 ft | 519 kts | 115° |
| 2026-04-26 11:58 | 24.90882 | 57.62725 | 36844 ft | 530 kts | 115° |
| 2026-04-26 11:58 | 24.89418 | 57.66506 | 36836 ft | 540 kts | 115° |
| 2026-04-26 11:59 | 24.86453 | 57.74155 | 36820 ft | 548 kts | 115° |
| 2026-04-26 11:59 | 24.83618 | 57.81935 | 36812 ft | 551 kts | 109° |
| 2026-04-26 12:00 | 24.81708 | 57.90130 | 36804 ft | 553 kts | 104° |
| 2026-04-26 12:00 | 24.79542 | 58.00684 | 36810 ft | 553 kts | 104° |
| 2026-04-26 12:01 | 24.76168 | 58.17208 | 36807 ft | 554 kts | 104° |
| 2026-04-26 12:01 | 24.72789 | 58.33661 | 36812 ft | 553 kts | 104° |
| 2026-04-26 12:02 | 24.69393 | 58.50097 | 36806 ft | 553 kts | 104° |
| 2026-04-26 12:02 | 24.65965 | 58.66594 | 36813 ft | 554 kts | 104° |
| 2026-04-26 12:03 | 24.62520 | 58.83082 | 36800 ft | 553 kts | 104° |
| 2026-04-26 12:03 | 24.59076 | 58.99457 | 36805 ft | 554 kts | 104° |
| 2026-04-26 12:04 | 24.55600 | 59.15903 | 36813 ft | 554 kts | 104° |
| 2026-04-26 12:04 | 24.52084 | 59.32431 | 36808 ft | 554 kts | 104° |
| 2026-04-26 12:05 | 24.48587 | 59.48768 | 36816 ft | 554 kts | 104° |
| 2026-04-26 12:05 | 24.45045 | 59.65232 | 36818 ft | 555 kts | 105° |
| 2026-04-26 12:06 | 24.41501 | 59.81610 | 36801 ft | 554 kts | 105° |
| 2026-04-26 12:06 | 24.37933 | 59.98018 | 36800 ft | 554 kts | 105° |
| 2026-04-26 12:07 | 24.34350 | 60.14395 | 36805 ft | 554 kts | 105° |
| 2026-04-26 12:07 | 24.30738 | 60.30836 | 36808 ft | 554 kts | 105° |
| 2026-04-26 12:08 | 24.27119 | 60.47212 | 36807 ft | 554 kts | 105° |
| 2026-04-26 12:08 | 24.23479 | 60.63603 | 36812 ft | 554 kts | 105° |
| 2026-04-26 12:09 | 24.19825 | 60.79970 | 36801 ft | 554 kts | 105° |
| 2026-04-26 12:09 | 24.16162 | 60.96341 | 36803 ft | 554 kts | 105° |
| 2026-04-26 12:10 | 24.12496 | 61.12616 | 36806 ft | 555 kts | 105° |
| 2026-04-26 12:10 | 24.08782 | 61.29034 | 36812 ft | 555 kts | 105° |
| 2026-04-26 12:11 | 24.07025 | 61.45646 | 36837 ft | 557 kts | 93° |
| 2026-04-26 12:11 | 24.06069 | 61.62590 | 36852 ft | 557 kts | 94° |
| 2026-04-26 12:12 | 24.05041 | 61.79445 | 36853 ft | 557 kts | 95° |
| 2026-04-26 12:12 | 24.03998 | 61.96257 | 36855 ft | 557 kts | 95° |
| 2026-04-26 12:13 | 24.03074 | 62.10912 | 36856 ft | 557 kts | 95° |
| 2026-04-26 12:13 | 24.01994 | 62.27764 | 36860 ft | 557 kts | 95° |
| 2026-04-26 12:14 | 24.00898 | 62.44581 | 36862 ft | 557 kts | 95° |
| 2026-04-26 12:14 | 23.99781 | 62.61430 | 36864 ft | 557 kts | 95° |
| 2026-04-26 12:15 | 23.98647 | 62.78240 | 36854 ft | 557 kts | 95° |
| 2026-04-26 12:15 | 23.97496 | 62.95038 | 36856 ft | 556 kts | 95° |
| 2026-04-26 12:16 | 23.96325 | 63.11846 | 36858 ft | 554 kts | 95° |
| 2026-04-26 12:16 | 23.95144 | 63.28581 | 36807 ft | 553 kts | 95° |
| 2026-04-26 12:17 | 23.93945 | 63.45285 | 36756 ft | 553 kts | 95° |
| 2026-04-26 12:17 | 23.92726 | 63.62019 | 36757 ft | 553 kts | 95° |
| 2026-04-26 12:18 | 23.91484 | 63.78785 | 36747 ft | 553 kts | 95° |
| 2026-04-26 12:18 | 23.90234 | 63.95439 | 36748 ft | 553 kts | 95° |
| 2026-04-26 12:19 | 23.88957 | 64.12202 | 36751 ft | 553 kts | 95° |
| 2026-04-26 12:19 | 23.87667 | 64.28897 | 36753 ft | 553 kts | 95° |
| 2026-04-26 12:20 | 23.86365 | 64.45506 | 36755 ft | 553 kts | 95° |
| 2026-04-26 12:20 | 23.85039 | 64.62192 | 36757 ft | 553 kts | 95° |
| 2026-04-26 12:21 | 23.83695 | 64.78881 | 36747 ft | 553 kts | 95° |
| 2026-04-26 12:21 | 23.83385 | 64.95644 | 36752 ft | 552 kts | 89° |
| 2026-04-26 12:22 | 23.83510 | 65.12315 | 36751 ft | 552 kts | 90° |
| 2026-04-26 12:22 | 23.83585 | 65.29037 | 36753 ft | 551 kts | 90° |
| 2026-04-26 12:23 | 23.83644 | 65.45794 | 36755 ft | 551 kts | 90° |
| 2026-04-26 12:23 | 23.83684 | 65.62439 | 36757 ft | 552 kts | 90° |
| 2026-04-26 12:24 | 23.83707 | 65.79227 | 36747 ft | 552 kts | 90° |
| 2026-04-26 12:24 | 23.83711 | 65.95842 | 36749 ft | 551 kts | 90° |
| 2026-04-26 12:25 | 23.83684 | 66.20889 | 36752 ft | 551 kts | 90° |
| 2026-04-26 12:25 | 23.83644 | 66.37613 | 36754 ft | 551 kts | 90° |
| 2026-04-26 12:26 | 23.83585 | 66.54369 | 36756 ft | 552 kts | 90° |
| 2026-04-26 12:26 | 23.83474 | 66.77718 | 36752 ft | 552 kts | 90° |
| 2026-04-26 12:27 | 23.83424 | 66.86111 | 36749 ft | 552 kts | 90° |
| 2026-04-26 12:27 | 23.83371 | 66.94419 | 36749 ft | 552 kts | 90° |
| 2026-04-26 12:28 | 23.83893 | 67.02763 | 36752 ft | 551 kts | 81° |
| 2026-04-26 12:28 | 23.85168 | 67.10979 | 36750 ft | 550 kts | 79° |
| 2026-04-26 12:29 | 23.86521 | 67.19184 | 36751 ft | 549 kts | 79° |
| 2026-04-26 12:30 | 23.88541 | 67.31433 | 36753 ft | 549 kts | 79° |
| 2026-04-26 12:30 | 23.89890 | 67.39640 | 36751 ft | 548 kts | 79° |
| 2026-04-26 12:31 | 23.91891 | 67.51867 | 36752 ft | 548 kts | 79° |
| 2026-04-26 12:31 | 23.93227 | 67.60070 | 36754 ft | 549 kts | 79° |
| 2026-04-26 12:32 | 23.94553 | 67.68240 | 36748 ft | 549 kts | 79° |
| 2026-04-26 12:33 | 23.96546 | 67.80564 | 36751 ft | 548 kts | 79° |
| 2026-04-26 12:33 | 23.97861 | 67.88733 | 36748 ft | 548 kts | 79° |
| 2026-04-26 12:34 | 23.99171 | 67.96903 | 36747 ft | 548 kts | 79° |
| 2026-04-26 12:34 | 24.00479 | 68.05089 | 36750 ft | 549 kts | 79° |
| 2026-04-26 12:35 | 24.01785 | 68.13292 | 36750 ft | 549 kts | 79° |
| 2026-04-26 12:35 | 24.03089 | 68.21506 | 36749 ft | 548 kts | 79° |
| 2026-04-26 12:36 | 24.04389 | 68.29725 | 36753 ft | 549 kts | 79° |
| 2026-04-26 12:36 | 24.05676 | 68.37899 | 36754 ft | 549 kts | 79° |
| 2026-04-26 12:37 | 24.06966 | 68.46115 | 36751 ft | 549 kts | 79° |
| 2026-04-26 12:37 | 24.08252 | 68.54336 | 36754 ft | 549 kts | 79° |
| 2026-04-26 12:38 | 24.09525 | 68.62504 | 36752 ft | 549 kts | 79° |
| 2026-04-26 12:38 | 24.10806 | 68.70747 | 36749 ft | 549 kts | 80° |
| 2026-04-26 12:39 | 24.11570 | 68.78998 | 36747 ft | 549 kts | 89° |
| 2026-04-26 12:39 | 24.11565 | 68.87361 | 36748 ft | 549 kts | 90° |
| 2026-04-26 12:40 | 24.11458 | 68.95649 | 36750 ft | 549 kts | 91° |
| 2026-04-26 12:40 | 24.11336 | 69.03994 | 36749 ft | 548 kts | 91° |
| 2026-04-26 12:41 | 24.11209 | 69.12289 | 36750 ft | 548 kts | 91° |
| 2026-04-26 12:41 | 24.11077 | 69.20637 | 36749 ft | 548 kts | 91° |
| 2026-04-26 12:42 | 24.10941 | 69.28929 | 36752 ft | 548 kts | 91° |
| 2026-04-26 12:42 | 24.10800 | 69.37235 | 36751 ft | 548 kts | 91° |
| 2026-04-26 12:43 | 24.10654 | 69.45569 | 36751 ft | 548 kts | 91° |
| 2026-04-26 12:43 | 24.10505 | 69.53881 | 36753 ft | 548 kts | 91° |
| 2026-04-26 12:44 | 24.10351 | 69.62202 | 36750 ft | 548 kts | 91° |
| 2026-04-26 12:44 | 24.10192 | 69.70513 | 36748 ft | 548 kts | 91° |
| 2026-04-26 12:45 | 24.10027 | 69.78860 | 36749 ft | 548 kts | 91° |
| 2026-04-26 12:45 | 24.09861 | 69.87152 | 36744 ft | 548 kts | 91° |
| 2026-04-26 12:46 | 24.09688 | 69.95458 | 36728 ft | 548 kts | 91° |
| 2026-04-26 12:46 | 24.09511 | 70.03803 | 36708 ft | 548 kts | 91° |
| 2026-04-26 12:47 | 24.09330 | 70.12087 | 36696 ft | 548 kts | 91° |
| 2026-04-26 12:47 | 24.09144 | 70.20416 | 36696 ft | 548 kts | 91° |
| 2026-04-26 12:48 | 24.08954 | 70.28724 | 36697 ft | 548 kts | 91° |
| 2026-04-26 12:48 | 24.08759 | 70.37043 | 36696 ft | 548 kts | 91° |
| 2026-04-26 12:49 | 24.08560 | 70.45343 | 36696 ft | 548 kts | 91° |
| 2026-04-26 12:49 | 24.08356 | 70.53687 | 36696 ft | 548 kts | 91° |
| 2026-04-26 12:50 | 24.08148 | 70.61994 | 36698 ft | 548 kts | 91° |
| 2026-04-26 12:50 | 24.07936 | 70.70274 | 36693 ft | 548 kts | 92° |
| 2026-04-26 12:51 | 24.07718 | 70.78608 | 36695 ft | 548 kts | 92° |
| 2026-04-26 12:51 | 24.07497 | 70.86894 | 36693 ft | 548 kts | 92° |
| 2026-04-26 12:52 | 24.07270 | 70.95250 | 36694 ft | 547 kts | 92° |
| 2026-04-26 12:52 | 24.07040 | 71.03535 | 36696 ft | 546 kts | 92° |
| 2026-04-26 12:53 | 24.06809 | 71.11796 | 36694 ft | 546 kts | 92° |
| 2026-04-26 12:53 | 24.06572 | 71.20074 | 36695 ft | 546 kts | 92° |
| 2026-04-26 12:54 | 24.06330 | 71.28384 | 36694 ft | 546 kts | 92° |
| 2026-04-26 12:54 | 24.06085 | 71.36650 | 36698 ft | 546 kts | 92° |
| 2026-04-26 12:55 | 24.05834 | 71.44949 | 36698 ft | 546 kts | 92° |
| 2026-04-26 12:55 | 24.05580 | 71.53223 | 36696 ft | 546 kts | 92° |
| 2026-04-26 12:56 | 24.05320 | 71.61533 | 36698 ft | 547 kts | 92° |
| 2026-04-26 12:56 | 24.05055 | 71.69844 | 36698 ft | 550 kts | 92° |
| 2026-04-26 12:57 | 24.04783 | 71.78226 | 36695 ft | 551 kts | 92° |
| 2026-04-26 12:57 | 24.04508 | 71.86587 | 36694 ft | 551 kts | 92° |
| 2026-04-26 12:58 | 24.04088 | 71.99094 | 36696 ft | 551 kts | 92° |
| 2026-04-26 12:58 | 24.03801 | 72.07444 | 36694 ft | 552 kts | 92° |
| 2026-04-26 12:59 | 24.03510 | 72.15830 | 36695 ft | 552 kts | 92° |
| 2026-04-26 12:59 | 24.03214 | 72.24181 | 36696 ft | 552 kts | 92° |
| 2026-04-26 13:00 | 24.02653 | 72.39721 | 36709 ft | 551 kts | 92° |
| 2026-04-26 13:00 | 24.01527 | 72.85424 | 36712 ft | 551 kts | 84° |
| 2026-04-26 13:01 | 24.01932 | 72.93802 | 36705 ft | 552 kts | 89° |
| 2026-04-26 13:01 | 24.02062 | 73.02187 | 36725 ft | 552 kts | 89° |
| 2026-04-26 13:02 | 24.02154 | 73.10520 | 36756 ft | 553 kts | 89° |
| 2026-04-26 13:02 | 24.02239 | 73.18932 | 36790 ft | 554 kts | 89° |
| 2026-04-26 13:03 | 24.02319 | 73.27339 | 36803 ft | 554 kts | 89° |
| 2026-04-26 13:03 | 24.02395 | 73.35754 | 36803 ft | 555 kts | 90° |
| 2026-04-26 13:04 | 24.02465 | 73.44159 | 36807 ft | 554 kts | 89° |
| 2026-04-26 13:04 | 24.02531 | 73.52557 | 36808 ft | 555 kts | 89° |
| 2026-04-26 13:05 | 24.02593 | 73.60986 | 36809 ft | 554 kts | 89° |
| 2026-04-26 13:05 | 24.02650 | 73.69391 | 36801 ft | 554 kts | 90° |
| 2026-04-26 13:06 | 24.02704 | 73.77833 | 36801 ft | 554 kts | 90° |
| 2026-04-26 13:06 | 24.02753 | 73.86205 | 36802 ft | 554 kts | 90° |
| 2026-04-26 13:07 | 24.02798 | 73.94612 | 36802 ft | 554 kts | 90° |
| 2026-04-26 13:07 | 24.02839 | 74.03056 | 36802 ft | 554 kts | 90° |
| 2026-04-26 13:08 | 24.02899 | 74.11474 | 36804 ft | 554 kts | 90° |
| 2026-04-26 13:08 | 24.02916 | 74.19902 | 36804 ft | 555 kts | 89° |
| 2026-04-26 13:09 | 24.03036 | 74.28339 | 36805 ft | 555 kts | 89° |
| 2026-04-26 13:09 | 24.03170 | 74.36711 | 36804 ft | 555 kts | 89° |
| 2026-04-26 13:10 | 24.03302 | 74.45137 | 36803 ft | 554 kts | 89° |
| 2026-04-26 13:10 | 24.03429 | 74.53567 | 36808 ft | 555 kts | 89° |
| 2026-04-26 13:11 | 24.03551 | 74.62003 | 36809 ft | 555 kts | 89° |
| 2026-04-26 13:11 | 24.03653 | 74.70387 | 36800 ft | 554 kts | 91° |
| 2026-04-26 13:12 | 24.02419 | 74.78651 | 36806 ft | 553 kts | 106° |
| 2026-04-26 13:12 | 24.00254 | 74.86723 | 36801 ft | 553 kts | 108° |
| 2026-04-26 13:13 | 23.98015 | 74.94712 | 36803 ft | 553 kts | 108° |
| 2026-04-26 13:13 | 23.95748 | 75.02757 | 36807 ft | 553 kts | 108° |
| 2026-04-26 13:14 | 23.93496 | 75.10729 | 36812 ft | 553 kts | 108° |
| 2026-04-26 13:14 | 23.91231 | 75.18729 | 36820 ft | 553 kts | 108° |
| 2026-04-26 13:15 | 23.88959 | 75.26732 | 36828 ft | 552 kts | 108° |
| 2026-04-26 13:15 | 23.87065 | 75.33395 | 36832 ft | 552 kts | 108° |
| 2026-04-26 13:16 | 23.84402 | 75.42739 | 36833 ft | 552 kts | 108° |
| 2026-04-26 13:16 | 23.82129 | 75.50699 | 36834 ft | 553 kts | 108° |
| 2026-04-26 13:17 | 23.78681 | 75.62737 | 36834 ft | 553 kts | 108° |
| 2026-04-26 13:18 | 23.75240 | 75.74715 | 36829 ft | 552 kts | 108° |
| 2026-04-26 13:19 | 23.71791 | 75.86684 | 36830 ft | 552 kts | 108° |
| 2026-04-26 13:19 | 23.69482 | 75.94673 | 36831 ft | 552 kts | 108° |
| 2026-04-26 13:20 | 23.67166 | 76.02655 | 36831 ft | 552 kts | 109° |
| 2026-04-26 13:20 | 23.64849 | 76.10598 | 36831 ft | 553 kts | 109° |
| 2026-04-26 13:21 | 23.62505 | 76.18617 | 36825 ft | 552 kts | 109° |
| 2026-04-26 13:21 | 23.60176 | 76.26565 | 36822 ft | 552 kts | 109° |
| 2026-04-26 13:22 | 23.57841 | 76.34518 | 36821 ft | 552 kts | 109° |
| 2026-04-26 13:22 | 23.55497 | 76.42487 | 36819 ft | 553 kts | 109° |
| 2026-04-26 13:23 | 23.53160 | 76.50414 | 36814 ft | 552 kts | 109° |
| 2026-04-26 13:23 | 23.50805 | 76.58386 | 36807 ft | 552 kts | 109° |
| 2026-04-26 13:24 | 23.48453 | 76.66331 | 36805 ft | 552 kts | 109° |
| 2026-04-26 13:24 | 23.46082 | 76.74324 | 36802 ft | 552 kts | 109° |
| 2026-04-26 13:25 | 23.43722 | 76.82264 | 36803 ft | 552 kts | 109° |
| 2026-04-26 13:25 | 23.41358 | 76.90198 | 36803 ft | 553 kts | 109° |
| 2026-04-26 13:26 | 23.38974 | 76.98186 | 36804 ft | 553 kts | 109° |
| 2026-04-26 13:26 | 23.36583 | 77.06177 | 36804 ft | 554 kts | 109° |
| 2026-04-26 13:27 | 23.34193 | 77.14154 | 36804 ft | 554 kts | 109° |
| 2026-04-26 13:27 | 23.31806 | 77.22102 | 36805 ft | 554 kts | 109° |
| 2026-04-26 13:28 | 23.29416 | 77.30113 | 36801 ft | 554 kts | 107° |
| 2026-04-26 13:28 | 23.28217 | 77.38399 | 36807 ft | 555 kts | 94° |
| 2026-04-26 13:29 | 23.27799 | 77.46774 | 36806 ft | 555 kts | 92° |
| 2026-04-26 13:29 | 23.27445 | 77.55192 | 36806 ft | 555 kts | 92° |
| 2026-04-26 13:30 | 23.27092 | 77.63592 | 36807 ft | 555 kts | 92° |
| 2026-04-26 13:30 | 23.26737 | 77.71983 | 36802 ft | 555 kts | 93° |
| 2026-04-26 13:31 | 23.26375 | 77.80392 | 36802 ft | 555 kts | 93° |
| 2026-04-26 13:31 | 23.26008 | 77.88828 | 36803 ft | 555 kts | 93° |
| 2026-04-26 13:32 | 23.25639 | 77.97215 | 36803 ft | 555 kts | 93° |
| 2026-04-26 13:32 | 23.25264 | 78.05631 | 36804 ft | 555 kts | 93° |
| 2026-04-26 13:33 | 23.24887 | 78.14005 | 36804 ft | 555 kts | 93° |
| 2026-04-26 13:33 | 23.24504 | 78.22408 | 36805 ft | 555 kts | 93° |
| 2026-04-26 13:34 | 23.24114 | 78.30847 | 36805 ft | 555 kts | 93° |
| 2026-04-26 13:34 | 23.23723 | 78.39219 | 36806 ft | 555 kts | 93° |
| 2026-04-26 13:35 | 23.23326 | 78.47619 | 36806 ft | 555 kts | 93° |
| 2026-04-26 13:35 | 23.22924 | 78.56042 | 36800 ft | 556 kts | 93° |
| 2026-04-26 13:36 | 23.22518 | 78.64455 | 36791 ft | 556 kts | 93° |
| 2026-04-26 13:36 | 23.22117 | 78.72839 | 36776 ft | 555 kts | 92° |
| 2026-04-26 13:37 | 23.21954 | 78.81255 | 36776 ft | 555 kts | 91° |
| 2026-04-26 13:37 | 23.21830 | 78.89711 | 36776 ft | 555 kts | 91° |
| 2026-04-26 13:38 | 23.21703 | 78.98111 | 36776 ft | 556 kts | 91° |
| 2026-04-26 13:38 | 23.21571 | 79.06561 | 36777 ft | 556 kts | 91° |
| 2026-04-26 13:39 | 23.21435 | 79.14979 | 36777 ft | 556 kts | 91° |
| 2026-04-26 13:39 | 23.21294 | 79.23403 | 36778 ft | 556 kts | 91° |
| 2026-04-26 13:40 | 23.21150 | 79.31801 | 36778 ft | 556 kts | 91° |
| 2026-04-26 13:40 | 23.21001 | 79.40243 | 36779 ft | 556 kts | 91° |
| 2026-04-26 13:41 | 23.20847 | 79.48650 | 36779 ft | 556 kts | 91° |
| 2026-04-26 13:41 | 23.20664 | 79.57075 | 36780 ft | 556 kts | 92° |
| 2026-04-26 13:42 | 23.20333 | 79.65456 | 36780 ft | 556 kts | 92° |
| 2026-04-26 13:42 | 23.19978 | 79.73898 | 36775 ft | 556 kts | 92° |
| 2026-04-26 13:43 | 23.19619 | 79.82328 | 36776 ft | 556 kts | 92° |
| 2026-04-26 13:43 | 23.19256 | 79.90734 | 36776 ft | 556 kts | 92° |
| 2026-04-26 13:44 | 23.18889 | 79.99126 | 36777 ft | 556 kts | 92° |
| 2026-04-26 13:44 | 23.18505 | 80.07509 | 36777 ft | 556 kts | 93° |
| 2026-04-26 13:45 | 23.18080 | 80.15897 | 36778 ft | 556 kts | 93° |
| 2026-04-26 13:45 | 23.17646 | 80.24318 | 36778 ft | 556 kts | 93° |
| 2026-04-26 13:46 | 23.17206 | 80.32734 | 36778 ft | 556 kts | 93° |
| 2026-04-26 13:46 | 23.16765 | 80.41099 | 36779 ft | 556 kts | 93° |
| 2026-04-26 13:47 | 23.16318 | 80.49499 | 36779 ft | 556 kts | 93° |
| 2026-04-26 13:47 | 23.15867 | 80.57883 | 36780 ft | 556 kts | 93° |
| 2026-04-26 13:48 | 23.15409 | 80.66306 | 36778 ft | 556 kts | 93° |
| 2026-04-26 13:48 | 23.14949 | 80.74694 | 36775 ft | 556 kts | 93° |
| 2026-04-26 13:49 | 23.14495 | 80.83080 | 36776 ft | 556 kts | 93° |
| 2026-04-26 13:49 | 23.14041 | 80.91446 | 36776 ft | 556 kts | 93° |
| 2026-04-26 13:50 | 23.13584 | 80.99783 | 36777 ft | 556 kts | 93° |
| 2026-04-26 13:50 | 23.13122 | 81.08123 | 36777 ft | 555 kts | 93° |
| 2026-04-26 13:51 | 23.12653 | 81.16513 | 36777 ft | 555 kts | 93° |
| 2026-04-26 13:51 | 23.12183 | 81.24841 | 36778 ft | 555 kts | 93° |
| 2026-04-26 13:52 | 23.11709 | 81.33176 | 36778 ft | 555 kts | 93° |
| 2026-04-26 13:52 | 23.11229 | 81.41518 | 36779 ft | 555 kts | 93° |
| 2026-04-26 13:53 | 23.10746 | 81.49840 | 36779 ft | 555 kts | 93° |
| 2026-04-26 13:53 | 23.10258 | 81.58192 | 36780 ft | 555 kts | 93° |
| 2026-04-26 13:54 | 23.09765 | 81.66535 | 36778 ft | 555 kts | 94° |
| 2026-04-26 13:54 | 23.09268 | 81.74868 | 36775 ft | 555 kts | 94° |
| 2026-04-26 13:55 | 23.08597 | 81.85998 | 36776 ft | 555 kts | 94° |
| 2026-04-26 13:56 | 23.07756 | 81.99798 | 36754 ft | 555 kts | 94° |
| 2026-04-26 13:56 | 23.07240 | 82.08151 | 36738 ft | 555 kts | 94° |
| 2026-04-26 13:57 | 23.06739 | 82.16489 | 36731 ft | 555 kts | 93° |
| 2026-04-26 13:57 | 23.06366 | 82.24808 | 36727 ft | 555 kts | 92° |
| 2026-04-26 13:58 | 23.06005 | 82.33124 | 36725 ft | 555 kts | 92° |
| 2026-04-26 13:58 | 23.05641 | 82.41418 | 36717 ft | 555 kts | 92° |
| 2026-04-26 13:59 | 23.05274 | 82.49666 | 36708 ft | 555 kts | 92° |
| 2026-04-26 13:59 | 23.04902 | 82.57959 | 36699 ft | 555 kts | 92° |
| 2026-04-26 14:00 | 23.04146 | 82.74480 | 36694 ft | 555 kts | 93° |
| 2026-04-26 14:01 | 23.03763 | 82.82713 | 36695 ft | 555 kts | 93° |
| 2026-04-26 14:01 | 23.03377 | 82.90933 | 36695 ft | 554 kts | 93° |
| 2026-04-26 14:02 | 23.02988 | 82.99114 | 36695 ft | 554 kts | 93° |
| 2026-04-26 14:02 | 23.02593 | 83.07338 | 36696 ft | 553 kts | 93° |
| 2026-04-26 14:03 | 23.02197 | 83.15492 | 36696 ft | 553 kts | 93° |
| 2026-04-26 14:03 | 23.01797 | 83.23638 | 36697 ft | 553 kts | 93° |
| 2026-04-26 14:04 | 23.01392 | 83.31791 | 36697 ft | 553 kts | 93° |
| 2026-04-26 14:04 | 23.00987 | 83.39867 | 36697 ft | 553 kts | 93° |
| 2026-04-26 14:05 | 23.00575 | 83.48013 | 36698 ft | 552 kts | 93° |
| 2026-04-26 14:05 | 23.00164 | 83.56062 | 36698 ft | 552 kts | 93° |
| 2026-04-26 14:06 | 22.99745 | 83.64156 | 36698 ft | 552 kts | 93° |
| 2026-04-26 14:06 | 22.99327 | 83.72179 | 36694 ft | 552 kts | 93° |
| 2026-04-26 14:07 | 22.98935 | 83.79607 | 36695 ft | 552 kts | 93° |
| 2026-04-26 14:07 | 22.98518 | 83.87455 | 36695 ft | 552 kts | 93° |